createdAt,value
2018-11-14T00:00:09.889Z,1024.18
2018-11-14T00:00:19.886Z,1024.19
2018-11-14T00:00:29.888Z,1024.19
2018-11-14T00:00:39.884Z,1024.17
2018-11-14T00:00:49.887Z,1024.19
2018-11-14T00:00:59.878Z,1024.22
2018-11-14T00:01:09.877Z,1024.20
2018-11-14T00:01:19.876Z,1024.22
2018-11-14T00:01:29.871Z,1024.22
2018-11-14T00:01:39.870Z,1024.23
2018-11-14T00:01:49.869Z,1024.24
2018-11-14T00:01:59.869Z,1024.23
2018-11-14T00:02:09.865Z,1024.22
2018-11-14T00:02:19.862Z,1024.21
2018-11-14T00:02:29.862Z,1024.24
2018-11-14T00:02:39.860Z,1024.20
2018-11-14T00:02:49.856Z,1024.24
2018-11-14T00:02:59.855Z,1024.23
2018-11-14T00:03:09.854Z,1024.24
2018-11-14T00:03:19.857Z,1024.22
2018-11-14T00:03:29.849Z,1024.27
2018-11-14T00:03:39.849Z,1024.25
2018-11-14T00:03:49.848Z,1024.28
2018-11-14T00:03:59.845Z,1024.24
2018-11-14T00:04:09.845Z,1024.25
2018-11-14T00:04:19.841Z,1024.19
2018-11-14T00:04:29.841Z,1024.22
2018-11-14T00:04:39.837Z,1024.21
2018-11-14T00:04:49.838Z,1024.20
2018-11-14T00:04:59.833Z,1024.22
2018-11-14T00:05:09.833Z,1024.19
2018-11-14T00:05:19.837Z,1024.20
2018-11-14T00:05:29.836Z,1024.24
2018-11-14T00:05:39.827Z,1024.22
2018-11-14T00:05:49.826Z,1024.26
2018-11-14T00:05:59.824Z,1024.20
2018-11-14T00:06:09.821Z,1024.23
2018-11-14T00:06:19.819Z,1024.23
2018-11-14T00:06:29.817Z,1024.22
2018-11-14T00:06:39.817Z,1024.20
2018-11-14T00:06:49.814Z,1024.23
2018-11-14T00:06:59.811Z,1024.16
2018-11-14T00:07:09.809Z,1024.24
2018-11-14T00:07:19.809Z,1024.22
2018-11-14T00:07:29.807Z,1024.23
2018-11-14T00:07:39.805Z,1024.22
2018-11-14T00:07:49.802Z,1024.21
2018-11-14T00:07:59.801Z,1024.18
2018-11-14T00:08:09.803Z,1024.17
2018-11-14T00:08:19.798Z,1024.24
2018-11-14T00:08:29.801Z,1024.20
2018-11-14T00:08:39.793Z,1024.18
2018-11-14T00:08:49.791Z,1024.21
2018-11-14T00:08:59.791Z,1024.18
2018-11-14T00:09:09.790Z,1024.20
2018-11-14T00:09:19.803Z,1024.21
2018-11-14T00:09:29.829Z,1024.18
2018-11-14T00:09:39.831Z,1024.20
2018-11-14T00:09:49.783Z,1024.21
2018-11-14T00:09:59.787Z,1024.22
2018-11-14T00:10:09.812Z,1024.17
2018-11-14T00:10:20.358Z,1024.16
2018-11-14T00:10:29.780Z,1024.18
2018-11-14T00:10:39.772Z,1024.21
2018-11-14T00:10:49.770Z,1024.23
2018-11-14T00:10:59.771Z,1024.23
2018-11-14T00:11:09.767Z,1024.18
2018-11-14T00:11:19.764Z,1024.19
2018-11-14T00:11:29.762Z,1024.18
2018-11-14T00:11:39.761Z,1024.19
2018-11-14T00:11:49.758Z,1024.19
2018-11-14T00:11:59.758Z,1024.19
2018-11-14T00:12:09.755Z,1024.16
2018-11-14T00:12:19.757Z,1024.20
2018-11-14T00:12:29.755Z,1024.15
2018-11-14T00:12:39.750Z,1024.22
2018-11-14T00:12:49.748Z,1024.15
2018-11-14T00:12:59.747Z,1024.21
2018-11-14T00:13:09.748Z,1024.19
2018-11-14T00:13:19.743Z,1024.18
2018-11-14T00:13:29.741Z,1024.19
2018-11-14T00:13:39.740Z,1024.17
2018-11-14T00:13:49.738Z,1024.18
2018-11-14T00:13:59.737Z,1024.15
2018-11-14T00:14:09.736Z,1024.19
2018-11-14T00:14:19.734Z,1024.20
2018-11-14T00:14:29.731Z,1024.20
2018-11-14T00:14:39.728Z,1024.19
2018-11-14T00:14:49.727Z,1024.19
2018-11-14T00:14:59.724Z,1024.17
2018-11-14T00:15:09.723Z,1024.20
2018-11-14T00:15:19.722Z,1024.14
2018-11-14T00:15:29.722Z,1024.17
2018-11-14T00:15:39.718Z,1024.16
2018-11-14T00:15:49.715Z,1024.17
2018-11-14T00:15:59.714Z,1024.17
2018-11-14T00:16:09.712Z,1024.15
2018-11-14T00:16:19.711Z,1024.15
2018-11-14T00:16:29.710Z,1024.20
2018-11-14T00:16:39.706Z,1024.17
2018-11-14T00:16:49.707Z,1024.20
2018-11-14T00:17:00.633Z,1024.20
2018-11-14T00:17:09.704Z,1024.16
2018-11-14T00:17:19.698Z,1024.14
2018-11-14T00:17:29.701Z,1024.19
2018-11-14T00:17:39.695Z,1024.19
2018-11-14T00:17:49.692Z,1024.16
2018-11-14T00:17:59.728Z,1024.19
2018-11-14T00:18:09.690Z,1024.23
2018-11-14T00:18:19.689Z,1024.22
2018-11-14T00:18:29.687Z,1024.17
2018-11-14T00:18:39.683Z,1024.21
2018-11-14T00:18:49.682Z,1024.22
2018-11-14T00:18:59.682Z,1024.23
2018-11-14T00:19:09.678Z,1024.17
2018-11-14T00:19:19.717Z,1024.22
2018-11-14T00:19:29.696Z,1024.23
2018-11-14T00:19:39.674Z,1024.19
2018-11-14T00:19:49.676Z,1024.21
2018-11-14T00:19:59.673Z,1024.22
2018-11-14T00:20:09.668Z,1024.22
2018-11-14T00:20:19.665Z,1024.22
2018-11-14T00:20:29.664Z,1024.22
2018-11-14T00:20:39.663Z,1024.18
2018-11-14T00:20:49.661Z,1024.20
2018-11-14T00:20:59.659Z,1024.21
2018-11-14T00:21:09.851Z,1024.19
2018-11-14T00:21:19.657Z,1024.19
2018-11-14T00:21:29.652Z,1024.21
2018-11-14T00:21:39.652Z,1024.18
2018-11-14T00:21:49.648Z,1024.18
2018-11-14T00:21:59.648Z,1024.17
2018-11-14T00:22:09.645Z,1024.18
2018-11-14T00:22:19.648Z,1024.18
2018-11-14T00:22:29.641Z,1024.16
2018-11-14T00:22:39.641Z,1024.16
2018-11-14T00:22:49.636Z,1024.18
2018-11-14T00:22:59.645Z,1024.14
2018-11-14T00:23:09.635Z,1024.14
2018-11-14T00:23:19.637Z,1024.13
2018-11-14T00:23:29.631Z,1024.17
2018-11-14T00:23:40.132Z,1024.19
2018-11-14T00:23:49.628Z,1024.15
2018-11-14T00:23:59.627Z,1024.13
2018-11-14T00:24:09.624Z,1024.17
2018-11-14T00:24:19.625Z,1024.13
2018-11-14T00:24:29.656Z,1024.12
2018-11-14T00:24:39.670Z,1024.17
2018-11-14T00:24:49.709Z,1024.13
2018-11-14T00:24:59.620Z,1024.13
2018-11-14T00:25:09.613Z,1024.16
2018-11-14T00:25:19.614Z,1024.16
2018-11-14T00:25:29.609Z,1024.15
2018-11-14T00:25:39.608Z,1024.15
2018-11-14T00:25:49.606Z,1024.21
2018-11-14T00:25:59.603Z,1024.21
2018-11-14T00:26:09.602Z,1024.13
2018-11-14T00:26:19.605Z,1024.21
2018-11-14T00:26:29.598Z,1024.19
2018-11-14T00:26:39.641Z,1024.17
2018-11-14T00:26:49.624Z,1024.21
2018-11-14T00:26:59.592Z,1024.20
2018-11-14T00:27:09.592Z,1024.20
2018-11-14T00:27:19.591Z,1024.20
2018-11-14T00:27:29.588Z,1024.19
2018-11-14T00:27:39.595Z,1024.19
2018-11-14T00:27:49.628Z,1024.22
2018-11-14T00:27:59.583Z,1024.22
2018-11-14T00:28:09.579Z,1024.24
2018-11-14T00:28:19.612Z,1024.20
2018-11-14T00:28:29.578Z,1024.23
2018-11-14T00:28:39.575Z,1024.23
2018-11-14T00:28:49.574Z,1024.19
2018-11-14T00:28:59.570Z,1024.19
2018-11-14T00:29:09.569Z,1024.20
2018-11-14T00:29:19.606Z,1024.21
2018-11-14T00:29:30.056Z,1024.18
2018-11-14T00:29:39.567Z,1024.20
2018-11-14T00:29:49.561Z,1024.24
2018-11-14T00:29:59.562Z,1024.21
2018-11-14T00:30:09.558Z,1024.19
2018-11-14T00:30:19.716Z,1024.25
2018-11-14T00:30:29.555Z,1024.23
2018-11-14T00:30:39.556Z,1024.23
2018-11-14T00:30:49.731Z,1024.22
2018-11-14T00:30:59.550Z,1024.24
2018-11-14T00:31:09.548Z,1024.26
2018-11-14T00:31:19.545Z,1024.22
2018-11-14T00:31:29.543Z,1024.18
2018-11-14T00:31:39.542Z,1024.18
2018-11-14T00:31:49.540Z,1024.17
2018-11-14T00:31:59.538Z,1024.19
2018-11-14T00:32:09.536Z,1024.24
2018-11-14T00:32:19.536Z,1024.19
2018-11-14T00:32:29.534Z,1024.22
2018-11-14T00:32:39.532Z,1024.22
2018-11-14T00:32:49.529Z,1024.21
2018-11-14T00:32:59.554Z,1024.22
2018-11-14T00:33:09.586Z,1024.21
2018-11-14T00:33:19.524Z,1024.21
2018-11-14T00:33:29.522Z,1024.20
2018-11-14T00:33:39.521Z,1024.24
2018-11-14T00:33:49.522Z,1024.27
2018-11-14T00:33:59.519Z,1024.25
2018-11-14T00:34:09.515Z,1024.23
2018-11-14T00:34:19.571Z,1024.25
2018-11-14T00:34:29.577Z,1024.21
2018-11-14T00:34:39.582Z,1024.22
2018-11-14T00:34:49.622Z,1024.21
2018-11-14T00:34:59.916Z,1024.20
2018-11-14T00:35:10.131Z,1024.25
2018-11-14T00:35:19.505Z,1024.24
2018-11-14T00:35:29.504Z,1024.28
2018-11-14T00:35:39.536Z,1024.28
2018-11-14T00:35:49.670Z,1024.26
2018-11-14T00:35:59.496Z,1024.23
2018-11-14T00:36:09.493Z,1024.24
2018-11-14T00:36:19.492Z,1024.26
2018-11-14T00:36:29.489Z,1024.29
2018-11-14T00:36:39.486Z,1024.26
2018-11-14T00:36:49.485Z,1024.27
2018-11-14T00:36:59.484Z,1024.25
2018-11-14T00:37:09.481Z,1024.26
2018-11-14T00:37:19.479Z,1024.29
2018-11-14T00:37:29.478Z,1024.25
2018-11-14T00:37:39.475Z,1024.28
2018-11-14T00:37:49.474Z,1024.29
2018-11-14T00:37:59.472Z,1024.26
2018-11-14T00:38:09.471Z,1024.23
2018-11-14T00:38:19.469Z,1024.26
2018-11-14T00:38:29.465Z,1024.26
2018-11-14T00:38:39.465Z,1024.23
2018-11-14T00:38:49.463Z,1024.27
2018-11-14T00:38:59.462Z,1024.25
2018-11-14T00:39:09.457Z,1024.27
2018-11-14T00:39:19.457Z,1024.25
2018-11-14T00:39:29.455Z,1024.23
2018-11-14T00:39:39.454Z,1024.25
2018-11-14T00:39:49.454Z,1024.23
2018-11-14T00:39:59.450Z,1024.23
2018-11-14T00:40:09.447Z,1024.23
2018-11-14T00:40:19.447Z,1024.18
2018-11-14T00:40:29.443Z,1024.20
2018-11-14T00:40:39.443Z,1024.24
2018-11-14T00:40:49.441Z,1024.22
2018-11-14T00:40:59.439Z,1024.21
2018-11-14T00:41:09.438Z,1024.23
2018-11-14T00:41:19.454Z,1024.20
2018-11-14T00:41:29.437Z,1024.23
2018-11-14T00:41:39.431Z,1024.20
2018-11-14T00:41:49.431Z,1024.21
2018-11-14T00:41:59.428Z,1024.25
2018-11-14T00:42:09.425Z,1024.24
2018-11-14T00:42:19.425Z,1024.17
2018-11-14T00:42:29.421Z,1024.19
2018-11-14T00:42:39.420Z,1024.18
2018-11-14T00:42:49.418Z,1024.17
2018-11-14T00:42:59.417Z,1024.19
2018-11-14T00:43:09.415Z,1024.20
2018-11-14T00:43:19.415Z,1024.20
2018-11-14T00:43:29.411Z,1024.25
2018-11-14T00:43:39.410Z,1024.21
2018-11-14T00:43:49.414Z,1024.19
2018-11-14T00:43:59.410Z,1024.17
2018-11-14T00:44:09.405Z,1024.20
2018-11-14T00:44:19.401Z,1024.22
2018-11-14T00:44:29.401Z,1024.22
2018-11-14T00:44:39.399Z,1024.22
2018-11-14T00:44:49.400Z,1024.19
2018-11-14T00:44:59.395Z,1024.20
2018-11-14T00:45:09.393Z,1024.20
2018-11-14T00:45:19.391Z,1024.20
2018-11-14T00:45:29.389Z,1024.21
2018-11-14T00:45:39.389Z,1024.18
2018-11-14T00:45:49.385Z,1024.19
2018-11-14T00:45:59.386Z,1024.19
2018-11-14T00:46:09.383Z,1024.18
2018-11-14T00:46:19.379Z,1024.21
2018-11-14T00:46:29.378Z,1024.19
2018-11-14T00:46:39.377Z,1024.17
2018-11-14T00:46:49.376Z,1024.23
2018-11-14T00:46:59.371Z,1024.22
2018-11-14T00:47:09.370Z,1024.19
2018-11-14T00:47:19.370Z,1024.23
2018-11-14T00:47:29.367Z,1024.24
2018-11-14T00:47:39.366Z,1024.26
2018-11-14T00:47:49.361Z,1024.26
2018-11-14T00:47:59.361Z,1024.19
2018-11-14T00:48:09.360Z,1024.23
2018-11-14T00:48:19.357Z,1024.20
2018-11-14T00:48:29.356Z,1024.20
2018-11-14T00:48:39.353Z,1024.23
2018-11-14T00:48:49.353Z,1024.22
2018-11-14T00:48:59.350Z,1024.21
2018-11-14T00:49:09.348Z,1024.19
2018-11-14T00:49:19.348Z,1024.20
2018-11-14T00:49:29.346Z,1024.18
2018-11-14T00:49:39.349Z,1024.21
2018-11-14T00:49:49.343Z,1024.15
2018-11-14T00:49:59.338Z,1024.21
2018-11-14T00:50:09.336Z,1024.20
2018-11-14T00:50:19.337Z,1024.18
2018-11-14T00:50:29.335Z,1024.19
2018-11-14T00:50:39.335Z,1024.17
2018-11-14T00:50:49.335Z,1024.18
2018-11-14T00:50:59.328Z,1024.15
2018-11-14T00:51:09.331Z,1024.16
2018-11-14T00:51:19.327Z,1024.15
2018-11-14T00:51:29.324Z,1024.14
2018-11-14T00:51:39.347Z,1024.16
2018-11-14T00:51:49.319Z,1024.16
2018-11-14T00:51:59.319Z,1024.17
2018-11-14T00:52:09.317Z,1024.19
2018-11-14T00:52:19.315Z,1024.15
2018-11-14T00:52:29.315Z,1024.14
2018-11-14T00:52:39.316Z,1024.16
2018-11-14T00:52:49.312Z,1024.15
2018-11-14T00:52:59.307Z,1024.17
2018-11-14T00:53:09.305Z,1024.15
2018-11-14T00:53:19.393Z,1024.15
2018-11-14T00:53:29.300Z,1024.15
2018-11-14T00:53:39.299Z,1024.17
2018-11-14T00:53:49.298Z,1024.17
2018-11-14T00:53:59.297Z,1024.16
2018-11-14T00:54:09.293Z,1024.17
2018-11-14T00:54:19.293Z,1024.18
2018-11-14T00:54:29.292Z,1024.19
2018-11-14T00:54:39.292Z,1024.18
2018-11-14T00:54:49.299Z,1024.18
2018-11-14T00:54:59.285Z,1024.22
2018-11-14T00:55:09.283Z,1024.23
2018-11-14T00:55:19.281Z,1024.19
2018-11-14T00:55:29.290Z,1024.19
2018-11-14T00:55:39.279Z,1024.18
2018-11-14T00:55:49.282Z,1024.18
2018-11-14T00:55:59.273Z,1024.19
2018-11-14T00:56:09.271Z,1024.16
2018-11-14T00:56:19.309Z,1024.18
2018-11-14T00:56:29.271Z,1024.16
2018-11-14T00:56:39.270Z,1024.14
2018-11-14T00:56:49.268Z,1024.13
2018-11-14T00:56:59.266Z,1024.16
2018-11-14T00:57:09.261Z,1024.18
2018-11-14T00:57:19.258Z,1024.19
2018-11-14T00:57:29.257Z,1024.14
2018-11-14T00:57:39.257Z,1024.14
2018-11-14T00:57:49.257Z,1024.17
2018-11-14T00:57:59.254Z,1024.11
2018-11-14T00:58:09.251Z,1024.16
2018-11-14T00:58:19.248Z,1024.13
2018-11-14T00:58:29.246Z,1024.14
2018-11-14T00:58:39.246Z,1024.13
2018-11-14T00:58:49.243Z,1024.12
2018-11-14T00:58:59.242Z,1024.14
2018-11-14T00:59:09.240Z,1024.16
2018-11-14T00:59:19.239Z,1024.11
2018-11-14T00:59:29.234Z,1024.14
2018-11-14T00:59:39.233Z,1024.16
2018-11-14T00:59:49.240Z,1024.13
2018-11-14T00:59:59.248Z,1024.16
2018-11-14T01:00:09.230Z,1024.17
2018-11-14T01:00:19.229Z,1024.14
2018-11-14T01:00:29.223Z,1024.12
2018-11-14T01:00:39.222Z,1024.17
2018-11-14T01:00:49.220Z,1024.12
2018-11-14T01:00:59.220Z,1024.15
2018-11-14T01:01:09.222Z,1024.16
2018-11-14T01:01:19.216Z,1024.14
2018-11-14T01:01:29.240Z,1024.16
2018-11-14T01:01:39.284Z,1024.13
2018-11-14T01:01:49.209Z,1024.15
2018-11-14T01:01:59.209Z,1024.14
2018-11-14T01:02:09.210Z,1024.14
2018-11-14T01:02:19.204Z,1024.19
2018-11-14T01:02:29.201Z,1024.17
2018-11-14T01:02:39.202Z,1024.17
2018-11-14T01:02:49.205Z,1024.18
2018-11-14T01:02:59.199Z,1024.16
2018-11-14T01:03:09.198Z,1024.17
2018-11-14T01:03:19.202Z,1024.21
2018-11-14T01:03:29.190Z,1024.16
2018-11-14T01:03:39.192Z,1024.15
2018-11-14T01:03:49.188Z,1024.14
2018-11-14T01:03:59.188Z,1024.17
2018-11-14T01:04:09.185Z,1024.15
2018-11-14T01:04:19.181Z,1024.16
2018-11-14T01:04:29.180Z,1024.19
2018-11-14T01:04:39.180Z,1024.17
2018-11-14T01:04:49.176Z,1024.21
2018-11-14T01:04:59.178Z,1024.20
2018-11-14T01:05:09.173Z,1024.19
2018-11-14T01:05:19.172Z,1024.18
2018-11-14T01:05:29.170Z,1024.14
2018-11-14T01:05:39.169Z,1024.21
2018-11-14T01:05:49.167Z,1024.22
2018-11-14T01:05:59.175Z,1024.23
2018-11-14T01:06:09.166Z,1024.18
2018-11-14T01:06:19.163Z,1024.16
2018-11-14T01:06:29.159Z,1024.20
2018-11-14T01:06:39.157Z,1024.12
2018-11-14T01:06:49.160Z,1024.12
2018-11-14T01:06:59.153Z,1024.17
2018-11-14T01:07:09.151Z,1024.13
2018-11-14T01:07:19.150Z,1024.15
2018-11-14T01:07:29.148Z,1024.19
2018-11-14T01:07:39.148Z,1024.15
2018-11-14T01:07:49.144Z,1024.21
2018-11-14T01:07:59.146Z,1024.21
2018-11-14T01:08:09.141Z,1024.20
2018-11-14T01:08:19.139Z,1024.20
2018-11-14T01:08:29.136Z,1024.14
2018-11-14T01:08:39.134Z,1024.19
2018-11-14T01:08:49.132Z,1024.17
2018-11-14T01:08:59.131Z,1024.16
2018-11-14T01:09:09.160Z,1024.17
2018-11-14T01:09:19.287Z,1024.13
2018-11-14T01:09:29.149Z,1024.17
2018-11-14T01:09:39.123Z,1024.18
2018-11-14T01:09:49.186Z,1024.16
2018-11-14T01:09:59.119Z,1024.18
2018-11-14T01:10:09.126Z,1024.15
2018-11-14T01:10:19.135Z,1024.15
2018-11-14T01:10:29.113Z,1024.13
2018-11-14T01:10:39.111Z,1024.15
2018-11-14T01:10:49.110Z,1024.15
2018-11-14T01:10:59.108Z,1024.10
2018-11-14T01:11:09.109Z,1024.16
2018-11-14T01:11:19.117Z,1024.15
2018-11-14T01:11:29.634Z,1024.09
2018-11-14T01:12:43.732Z,1024.15
2018-11-14T01:12:53.761Z,1024.15
2018-11-14T01:13:03.776Z,1024.15
2018-11-14T01:13:13.786Z,1024.12
2018-11-14T01:13:23.901Z,1024.12
2018-11-14T01:13:33.724Z,1024.14
2018-11-14T01:13:43.719Z,1024.14
2018-11-14T01:13:53.717Z,1024.15
2018-11-14T01:14:03.717Z,1024.15
2018-11-14T01:14:13.714Z,1024.16
2018-11-14T01:14:23.712Z,1024.15
2018-11-14T01:14:33.710Z,1024.15
2018-11-14T01:14:43.709Z,1024.17
2018-11-14T01:14:53.707Z,1024.15
2018-11-14T01:15:03.706Z,1024.15
2018-11-14T01:15:13.702Z,1024.16
2018-11-14T01:15:23.699Z,1024.19
2018-11-14T01:15:33.704Z,1024.14
2018-11-14T01:15:43.698Z,1024.19
2018-11-14T01:15:53.696Z,1024.18
2018-11-14T01:16:03.694Z,1024.17
2018-11-14T01:16:13.692Z,1024.22
2018-11-14T01:16:23.714Z,1024.17
2018-11-14T01:16:33.688Z,1024.21
2018-11-14T01:16:43.686Z,1024.17
2018-11-14T01:16:53.685Z,1024.18
2018-11-14T01:17:03.687Z,1024.15
2018-11-14T01:17:13.693Z,1024.17
2018-11-14T01:17:23.680Z,1024.19
2018-11-14T01:17:33.677Z,1024.20
2018-11-14T01:17:43.675Z,1024.17
2018-11-14T01:17:53.676Z,1024.19
2018-11-14T01:18:03.808Z,1024.17
2018-11-14T01:18:13.670Z,1024.18
2018-11-14T01:18:23.668Z,1024.17
2018-11-14T01:18:33.667Z,1024.20
2018-11-14T01:18:43.663Z,1024.17
2018-11-14T01:18:53.665Z,1024.16
2018-11-14T01:19:03.661Z,1024.17
2018-11-14T01:19:13.659Z,1024.17
2018-11-14T01:19:23.657Z,1024.19
2018-11-14T01:19:33.655Z,1024.17
2018-11-14T01:19:43.654Z,1024.15
2018-11-14T01:19:53.651Z,1024.17
2018-11-14T01:20:03.650Z,1024.17
2018-11-14T01:20:13.649Z,1024.16
2018-11-14T01:20:23.646Z,1024.19
2018-11-14T01:20:33.646Z,1024.18
2018-11-14T01:20:43.642Z,1024.17
2018-11-14T01:20:53.648Z,1024.18
2018-11-14T01:21:03.639Z,1024.17
2018-11-14T01:21:13.637Z,1024.17
2018-11-14T01:21:23.635Z,1024.18
2018-11-14T01:21:33.672Z,1024.17
2018-11-14T01:22:43.104Z,1024.12
2018-11-14T01:22:53.098Z,1024.11
2018-11-14T01:23:03.099Z,1024.11
2018-11-14T01:23:13.096Z,1024.13
2018-11-14T01:23:23.090Z,1024.13
2018-11-14T01:23:33.095Z,1024.15
2018-11-14T01:23:43.089Z,1024.15
2018-11-14T01:23:53.086Z,1024.12
2018-11-14T01:24:03.088Z,1024.13
2018-11-14T01:24:13.085Z,1024.17
2018-11-14T01:24:23.085Z,1024.11
2018-11-14T01:24:33.080Z,1024.11
2018-11-14T01:24:43.080Z,1024.11
2018-11-14T01:24:53.077Z,1024.13
2018-11-14T01:25:03.074Z,1024.09
2018-11-14T01:25:13.074Z,1024.12
2018-11-14T01:25:23.071Z,1024.11
2018-11-14T01:25:33.069Z,1024.10
2018-11-14T01:25:43.067Z,1024.07
2018-11-14T01:25:53.070Z,1024.08
2018-11-14T01:26:03.064Z,1024.06
2018-11-14T01:26:13.062Z,1024.08
2018-11-14T01:26:23.060Z,1024.11
2018-11-14T01:26:33.066Z,1024.09
2018-11-14T01:26:43.058Z,1024.05
2018-11-14T01:26:53.093Z,1024.05
2018-11-14T01:27:03.106Z,1024.07
2018-11-14T01:27:13.452Z,1024.05
2018-11-14T01:27:23.592Z,1024.06
2018-11-14T01:27:33.046Z,1024.05
2018-11-14T01:27:43.049Z,1024.10
2018-11-14T01:27:53.042Z,1024.07
2018-11-14T01:28:03.042Z,1024.08
2018-11-14T01:28:13.040Z,1024.08
2018-11-14T01:28:23.040Z,1024.09
2018-11-14T01:28:33.036Z,1024.04
2018-11-14T01:28:43.039Z,1024.05
2018-11-14T01:28:53.043Z,1024.08
2018-11-14T01:29:03.031Z,1024.05
2018-11-14T01:29:13.028Z,1024.08
2018-11-14T01:29:23.026Z,1024.08
2018-11-14T01:29:33.026Z,1024.08
2018-11-14T01:29:43.023Z,1024.08
2018-11-14T01:29:53.020Z,1024.09
2018-11-14T01:30:03.023Z,1024.08
2018-11-14T01:30:13.017Z,1024.07
2018-11-14T01:30:23.023Z,1024.08
2018-11-14T01:30:33.013Z,1024.07
2018-11-14T01:30:43.011Z,1024.02
2018-11-14T01:30:53.010Z,1024.08
2018-11-14T01:31:03.008Z,1024.08
2018-11-14T01:31:13.006Z,1024.06
2018-11-14T01:31:23.004Z,1024.08
2018-11-14T01:31:33.003Z,1024.09
2018-11-14T01:31:43.000Z,1024.09
2018-11-14T01:31:52.999Z,1024.07
2018-11-14T01:32:02.997Z,1024.10
2018-11-14T01:32:12.995Z,1024.09
2018-11-14T01:32:22.993Z,1024.03
2018-11-14T01:32:32.991Z,1024.08
2018-11-14T01:32:42.990Z,1024.07
2018-11-14T01:32:52.990Z,1024.10
2018-11-14T01:33:02.986Z,1024.07
2018-11-14T01:33:12.983Z,1024.06
2018-11-14T01:33:22.983Z,1024.05
2018-11-14T01:33:32.980Z,1024.06
2018-11-14T01:33:42.978Z,1024.06
2018-11-14T01:33:52.988Z,1024.06
2018-11-14T01:34:02.979Z,1024.06
2018-11-14T01:34:12.971Z,1024.06
2018-11-14T01:34:22.970Z,1024.08
2018-11-14T01:34:32.970Z,1024.04
2018-11-14T01:34:42.969Z,1024.02
2018-11-14T01:34:52.966Z,1024.06
2018-11-14T01:35:02.962Z,1024.06
2018-11-14T01:35:12.960Z,1024.07
2018-11-14T01:35:22.969Z,1024.09
2018-11-14T01:35:32.957Z,1024.09
2018-11-14T01:35:42.975Z,1024.10
2018-11-14T01:35:53.058Z,1024.09
2018-11-14T01:36:02.953Z,1024.07
2018-11-14T01:36:12.954Z,1024.10
2018-11-14T01:36:22.947Z,1024.12
2018-11-14T01:36:32.948Z,1024.09
2018-11-14T01:36:42.958Z,1024.10
2018-11-14T01:36:52.943Z,1024.09
2018-11-14T01:37:02.942Z,1024.09
2018-11-14T01:37:12.942Z,1024.08
2018-11-14T01:37:22.938Z,1024.09
2018-11-14T01:37:32.936Z,1024.08
2018-11-14T01:37:42.933Z,1024.10
2018-11-14T01:37:52.932Z,1024.10
2018-11-14T01:38:02.930Z,1024.04
2018-11-14T01:38:12.928Z,1024.10
2018-11-14T01:38:22.925Z,1024.11
2018-11-14T01:38:32.924Z,1024.07
2018-11-14T01:38:42.922Z,1024.07
2018-11-14T01:38:52.920Z,1024.08
2018-11-14T01:39:02.918Z,1024.07
2018-11-14T01:39:12.917Z,1024.04
2018-11-14T01:39:22.915Z,1024.10
2018-11-14T01:39:32.913Z,1024.04
2018-11-14T01:39:42.912Z,1024.05
2018-11-14T01:39:52.912Z,1024.08
2018-11-14T01:40:02.907Z,1024.07
2018-11-14T01:40:12.906Z,1024.06
2018-11-14T01:40:22.902Z,1024.08
2018-11-14T01:40:32.901Z,1024.07
2018-11-14T01:40:42.899Z,1024.04
2018-11-14T01:40:52.899Z,1024.01
2018-11-14T01:41:02.905Z,1024.05
2018-11-14T01:41:12.896Z,1024.09
2018-11-14T01:41:22.895Z,1024.02
2018-11-14T01:41:32.891Z,1024.01
2018-11-14T01:41:42.901Z,1023.99
2018-11-14T01:41:52.886Z,1024.01
2018-11-14T01:42:02.886Z,1023.99
2018-11-14T01:42:12.886Z,1024.03
2018-11-14T01:42:22.882Z,1024.01
2018-11-14T01:42:32.879Z,1024.02
2018-11-14T01:42:42.877Z,1023.97
2018-11-14T01:42:52.949Z,1023.99
2018-11-14T01:43:02.873Z,1023.99
2018-11-14T01:43:12.872Z,1023.99
2018-11-14T01:43:22.868Z,1023.98
2018-11-14T01:43:32.867Z,1023.97
2018-11-14T01:43:42.867Z,1024.00
2018-11-14T01:43:52.872Z,1023.99
2018-11-14T01:44:02.863Z,1024.00
2018-11-14T01:44:12.861Z,1023.98
2018-11-14T01:44:22.860Z,1023.97
2018-11-14T01:44:32.861Z,1023.98
2018-11-14T01:44:42.854Z,1023.98
2018-11-14T01:44:52.852Z,1023.97
2018-11-14T01:45:02.851Z,1023.99
2018-11-14T01:45:12.849Z,1023.99
2018-11-14T01:45:22.848Z,1023.97
2018-11-14T01:45:32.849Z,1023.95
2018-11-14T01:45:42.844Z,1023.93
2018-11-14T01:45:52.843Z,1023.97
2018-11-14T01:46:02.855Z,1023.99
2018-11-14T01:46:12.839Z,1023.98
2018-11-14T01:46:22.835Z,1023.94
2018-11-14T01:46:32.834Z,1023.96
2018-11-14T01:46:42.850Z,1023.94
2018-11-14T01:46:52.830Z,1023.97
2018-11-14T01:47:02.829Z,1023.96
2018-11-14T01:47:12.828Z,1024.00
2018-11-14T01:47:22.827Z,1024.00
2018-11-14T01:47:32.823Z,1023.96
2018-11-14T01:47:42.822Z,1023.95
2018-11-14T01:47:52.820Z,1023.95
2018-11-14T01:48:02.818Z,1023.96
2018-11-14T01:48:12.818Z,1023.96
2018-11-14T01:48:22.814Z,1023.93
2018-11-14T01:48:32.812Z,1023.93
2018-11-14T01:48:42.810Z,1023.91
2018-11-14T01:48:52.809Z,1023.95
2018-11-14T01:49:02.806Z,1023.95
2018-11-14T01:49:12.805Z,1023.96
2018-11-14T01:49:22.802Z,1023.92
2018-11-14T01:49:32.800Z,1023.92
2018-11-14T01:49:42.799Z,1023.95
2018-11-14T01:49:52.802Z,1023.96
2018-11-14T01:50:02.797Z,1023.94
2018-11-14T01:50:12.793Z,1023.96
2018-11-14T01:50:22.791Z,1023.96
2018-11-14T01:50:32.790Z,1023.97
2018-11-14T01:50:42.789Z,1023.92
2018-11-14T01:50:52.786Z,1023.95
2018-11-14T01:51:02.785Z,1023.95
2018-11-14T01:51:12.782Z,1023.96
2018-11-14T01:51:23.643Z,1023.97
2018-11-14T01:51:32.778Z,1023.98
2018-11-14T01:51:42.784Z,1023.97
2018-11-14T01:51:52.775Z,1023.96
2018-11-14T01:52:02.773Z,1023.95
2018-11-14T01:52:12.772Z,1023.97
2018-11-14T01:52:22.769Z,1023.95
2018-11-14T01:52:32.768Z,1023.93
2018-11-14T01:52:42.765Z,1023.95
2018-11-14T01:52:52.778Z,1023.94
2018-11-14T01:53:02.765Z,1023.96
2018-11-14T01:53:12.760Z,1023.97
2018-11-14T01:53:22.757Z,1023.99
2018-11-14T01:53:32.756Z,1023.94
2018-11-14T01:53:42.753Z,1023.97
2018-11-14T01:53:52.751Z,1023.98
2018-11-14T01:54:02.751Z,1023.97
2018-11-14T01:54:12.749Z,1024.01
2018-11-14T01:54:22.751Z,1023.98
2018-11-14T01:54:32.745Z,1023.96
2018-11-14T01:54:42.743Z,1023.96
2018-11-14T01:54:52.742Z,1024.00
2018-11-14T01:55:02.740Z,1023.98
2018-11-14T01:55:12.737Z,1023.96
2018-11-14T01:55:22.736Z,1023.98
2018-11-14T01:55:32.733Z,1023.98
2018-11-14T01:55:42.730Z,1023.92
2018-11-14T01:55:52.737Z,1023.96
2018-11-14T01:56:02.727Z,1023.95
2018-11-14T01:56:12.726Z,1023.97
2018-11-14T01:56:22.723Z,1023.91
2018-11-14T01:56:32.721Z,1023.93
2018-11-14T01:56:42.720Z,1023.94
2018-11-14T01:56:52.718Z,1023.93
2018-11-14T01:57:02.714Z,1023.93
2018-11-14T01:57:12.716Z,1023.94
2018-11-14T01:57:22.716Z,1023.95
2018-11-14T01:57:32.711Z,1023.91
2018-11-14T01:57:42.709Z,1023.90
2018-11-14T01:57:52.708Z,1023.93
2018-11-14T01:58:02.706Z,1023.95
2018-11-14T01:58:12.707Z,1023.95
2018-11-14T01:58:22.701Z,1023.92
2018-11-14T01:58:32.700Z,1023.92
2018-11-14T01:58:42.698Z,1023.93
2018-11-14T01:58:52.696Z,1023.96
2018-11-14T01:59:02.695Z,1023.94
2018-11-14T01:59:12.692Z,1023.93
2018-11-14T01:59:22.692Z,1023.95
2018-11-14T01:59:32.689Z,1023.94
2018-11-14T01:59:42.688Z,1023.92
2018-11-14T01:59:52.684Z,1023.96
2018-11-14T02:00:02.684Z,1023.93
2018-11-14T02:00:12.682Z,1023.97
2018-11-14T02:00:22.681Z,1023.99
2018-11-14T02:00:32.677Z,1023.96
2018-11-14T02:00:42.675Z,1023.98
2018-11-14T02:00:52.680Z,1023.95
2018-11-14T02:01:02.673Z,1023.98
2018-11-14T02:01:12.671Z,1023.94
2018-11-14T02:01:22.667Z,1023.93
2018-11-14T02:01:32.668Z,1023.93
2018-11-14T02:01:42.664Z,1023.96
2018-11-14T02:01:52.661Z,1023.93
2018-11-14T02:02:02.660Z,1023.95
2018-11-14T02:02:12.660Z,1023.95
2018-11-14T02:02:22.657Z,1023.93
2018-11-14T02:02:32.654Z,1023.95
2018-11-14T02:02:42.654Z,1023.97
2018-11-14T02:02:52.661Z,1023.96
2018-11-14T02:03:02.652Z,1023.96